Time;durP1;ratioP1;P1;durP2;ratioP2;P2;SDS_P1;SDS_P2;PMS_P1;PMS_P2;Temp;Humidity;BMP_temperature;BMP_pressure;BME280_temperature;BME280_humidity;BME280_pressure;Samples;Min_cycle;Max_cycle;Signal;HPM_P1;HPM_P2
2023/09/27 00:00:09;;;;;;;20.20;13.90;;;;;;;13.66;100.00;101336.82;105694;1254;61361;-60
2023/09/27 00:02:40;;;;;;;17.50;13.60;;;;;;;13.63;100.00;101336.67;105832;1251;71655;-61
2023/09/27 00:05:10;;;;;;;20.70;13.00;;;;;;;13.57;100.00;101338.61;106019;1256;66505;-63
2023/09/27 00:07:39;;;;;;;20.40;13.60;;;;;;;13.50;100.00;101336.83;105798;1257;71741;-62
2023/09/27 00:10:09;;;;;;;17.30;12.40;;;;;;;13.43;100.00;101334.45;105687;1254;62079;-61
2023/09/27 00:12:36;;;;;;;18.30;12.10;;;;;;;13.36;100.00;101333.29;105866;1256;60086;-61
2023/09/27 00:15:05;;;;;;;18.80;13.40;;;;;;;13.30;100.00;101336.73;106021;1251;73161;-62
2023/09/27 00:17:32;;;;;;;16.70;13.40;;;;;;;13.26;100.00;101339.32;105983;1256;67109;-61
2023/09/27 00:19:59;;;;;;;18.90;12.80;;;;;;;13.22;100.00;101342.16;105771;1255;71374;-61
2023/09/27 00:22:27;;;;;;;18.50;12.50;;;;;;;13.18;100.00;101342.48;105880;1255;59724;-61
2023/09/27 00:24:54;;;;;;;18.50;12.30;;;;;;;13.13;100.00;101344.05;106670;1251;60346;-61
2023/09/27 00:27:21;;;;;;;17.20;12.40;;;;;;;13.10;100.00;101346.52;105904;1254;72326;-61
2023/09/27 00:29:48;;;;;;;19.20;12.30;;;;;;;13.07;100.00;101350.18;105840;1250;67083;-61
2023/09/27 00:32:15;;;;;;;19.80;13.00;;;;;;;13.02;100.00;101350.88;105911;1257;71613;-61
2023/09/27 00:34:42;;;;;;;18.40;13.00;;;;;;;13.00;100.00;101351.36;106067;1261;59618;-61
2023/09/27 00:37:09;;;;;;;18.90;13.30;;;;;;;12.98;100.00;101353.77;106141;1256;60351;-63
2023/09/27 00:39:36;;;;;;;17.40;13.20;;;;;;;12.96;100.00;101356.81;105786;1256;74148;-62
2023/09/27 00:42:04;;;;;;;21.30;12.30;;;;;;;12.94;100.00;101360.38;105927;1257;67246;-62
2023/09/27 00:44:31;;;;;;;18.90;12.60;;;;;;;12.91;100.00;101364.02;105808;1254;72885;-62
2023/09/27 00:46:58;;;;;;;15.70;13.20;;;;;;;12.87;100.00;101363.03;105719;1255;60785;-62
2023/09/27 00:49:25;;;;;;;22.10;12.90;;;;;;;12.85;100.00;101363.48;105846;1255;60565;-64
2023/09/27 00:51:53;;;;;;;20.00;13.20;;;;;;;12.83;100.00;101370.46;105733;1251;72140;-63
2023/09/27 00:54:20;;;;;;;16.10;12.50;;;;;;;12.83;100.00;101371.91;105807;1256;67316;-63
2023/09/27 00:56:49;;;;;;;21.30;13.40;;;;;;;12.82;100.00;101374.20;105816;1256;71662;-62
2023/09/27 00:59:16;;;;;;;21.30;13.20;;;;;;;12.81;100.00;101377.33;105463;1251;62641;-62
2023/09/27 01:01:43;;;;;;;14.20;11.30;;;;;;;12.79;100.00;101380.56;105768;1257;60271;-64
2023/09/27 01:04:11;;;;;;;17.60;12.40;;;;;;;12.77;100.00;101379.83;105999;1254;71735;-62
2023/09/27 01:06:38;;;;;;;18.70;12.70;;;;;;;12.76;100.00;101385.36;106115;1254;67212;-60
2023/09/27 01:09:05;;;;;;;19.20;12.80;;;;;;;12.75;100.00;101386.54;105765;1257;72227;-60
2023/09/27 01:11:32;;;;;;;17.90;11.50;;;;;;;12.74;100.00;101386.11;105803;1257;60713;-60
2023/09/27 01:13:59;;;;;;;21.70;12.90;;;;;;;12.73;100.00;101387.27;105994;1251;60751;-60
2023/09/27 01:16:26;;;;;;;17.30;11.60;;;;;;;12.71;100.00;101387.20;106096;1251;73068;-61
2023/09/27 01:18:53;;;;;;;17.60;12.40;;;;;;;12.69;100.00;101390.74;106084;1254;67125;-64
2023/09/27 01:21:21;;;;;;;19.00;12.80;;;;;;;12.68;100.00;101390.96;105798;1254;72958;-62
2023/09/27 01:23:49;;;;;;;15.80;11.40;;;;;;;12.68;100.00;101394.30;105966;1251;60556;-65
2023/09/27 01:26:18;;;;;;;13.30;10.90;;;;;;;12.65;100.00;101395.60;105723;1250;59769;-60
2023/09/27 01:28:46;;;;;;;18.00;11.30;;;;;;;12.65;100.00;101395.17;105889;1254;72876;-63
2023/09/27 01:31:13;;;;;;;14.90;11.40;;;;;;;12.64;100.00;101395.63;105840;1251;68263;-62
2023/09/27 01:33:40;;;;;;;14.50;11.20;;;;;;;12.62;100.00;101390.54;106108;1254;72548;-61
2023/09/27 01:36:07;;;;;;;16.40;11.80;;;;;;;12.62;100.00;101395.52;106233;1254;60318;-64
2023/09/27 01:38:34;;;;;;;16.60;11.60;;;;;;;12.60;100.00;101396.03;105971;1254;60334;-60
2023/09/27 01:41:01;;;;;;;13.50;10.00;;;;;;;12.58;100.00;101391.77;106002;1254;71938;-63
2023/09/27 01:43:29;;;;;;;22.40;12.10;;;;;;;12.55;100.00;101393.98;105665;1257;65847;-61
2023/09/27 01:45:56;;;;;;;15.40;11.00;;;;;;;12.54;100.00;101395.63;105851;1254;71490;-61
2023/09/27 01:48:24;;;;;;;14.30;11.50;;;;;;;12.55;100.00;101398.05;106054;1251;59729;-63
2023/09/27 01:50:51;;;;;;;15.90;12.20;;;;;;;12.52;100.00;101394.82;106044;1254;60965;-62
2023/09/27 01:53:18;;;;;;;13.90;10.90;;;;;;;12.50;100.00;101397.83;106013;1255;71743;-61
2023/09/27 01:55:47;;;;;;;16.20;10.90;;;;;;;12.48;100.00;101396.36;105959;1255;65908;-61
2023/09/27 01:58:14;;;;;;;15.30;10.60;;;;;;;12.45;100.00;101403.16;105867;1258;72512;-61
2023/09/27 02:00:41;;;;;;;16.40;12.20;;;;;;;12.41;100.00;101405.80;105934;1254;59724;-61
2023/09/27 02:03:08;;;;;;;20.00;12.40;;;;;;;12.37;100.00;101405.34;106244;1251;60259;-63
2023/09/27 02:05:35;;;;;;;19.60;12.10;;;;;;;12.34;100.00;101407.02;106148;1256;73103;-61
2023/09/27 02:08:03;;;;;;;14.30;11.20;;;;;;;12.32;100.00;101410.79;105835;1251;67661;-66
2023/09/27 02:10:30;;;;;;;17.20;12.00;;;;;;;12.30;100.00;101411.85;106010;1254;71457;-64
2023/09/27 02:12:57;;;;;;;16.70;11.50;;;;;;;12.28;100.00;101412.29;105865;1251;61825;-65
2023/09/27 02:15:24;;;;;;;18.30;11.20;;;;;;;12.27;100.00;101410.64;105821;1254;59598;-62
2023/09/27 02:17:52;;;;;;;16.10;11.60;;;;;;;12.24;100.00;101411.52;106080;1255;72970;-63
2023/09/27 02:20:19;;;;;;;14.30;12.40;;;;;;;12.21;100.00;101409.00;106075;1251;67265;-63
2023/09/27 02:22:49;;;;;;;17.10;12.50;;;;;;;12.18;100.00;101416.48;106085;1251;72745;-63
2023/09/27 02:25:16;;;;;;;15.60;11.50;;;;;;;12.13;100.00;101417.92;107831;1251;59730;-61
2023/09/27 02:27:44;;;;;;;20.30;12.00;;;;;;;12.09;100.00;101418.29;106082;1254;59628;-62
2023/09/27 02:30:12;;;;;;;19.50;14.00;;;;;;;12.05;100.00;101414.01;105971;1256;71816;-62
2023/09/27 02:32:42;;;;;;;21.00;11.90;;;;;;;12.03;100.00;101412.86;106376;1251;67625;-63
2023/09/27 02:35:09;;;;;;;14.70;12.00;;;;;;;12.01;100.00;101412.16;106136;1251;73809;-64
2023/09/27 02:37:40;;;;;;;15.70;12.10;;;;;;;12.00;100.00;101415.27;105908;1255;60524;-62
2023/09/27 02:40:11;;;;;;;19.40;10.50;;;;;;;11.99;100.00;101416.91;105940;1251;60445;-61
2023/09/27 02:42:42;;;;;;;15.00;10.50;;;;;;;12.02;100.00;101412.48;105831;1251;72944;-64
2023/09/27 02:45:09;;;;;;;;;;;;;;;12.06;100.00;101415.12;105709;1251;66552;-64
2023/09/27 02:47:38;;;;;;;15.60;10.20;;;;;;;12.09;100.00;101417.11;105905;1254;72690;-61
2023/09/27 02:50:08;;;;;;;19.60;10.40;;;;;;;12.09;100.00;101413.95;105838;1255;60344;-62
2023/09/27 02:52:36;;;;;;;15.80;9.80;;;;;;;12.07;100.00;101412.25;105755;1255;60455;-64
2023/09/27 02:55:04;;;;;;;15.80;9.50;;;;;;;12.05;100.00;101410.77;105870;1253;74503;-65
2023/09/27 02:57:30;;;;;;;17.80;9.80;;;;;;;12.03;100.00;101407.96;105697;1254;67869;-62
2023/09/27 02:59:58;;;;;;;15.70;10.20;;;;;;;12.03;100.00;101408.91;105622;1258;71446;-62
2023/09/27 03:02:26;;;;;;;12.60;9.80;;;;;;;12.03;100.00;101417.05;105747;1251;60501;-61
2023/09/27 03:04:53;;;;;;;16.30;11.20;;;;;;;12.07;100.00;101416.61;106383;1250;60511;-62
2023/09/27 03:07:20;;;;;;;13.20;10.80;;;;;;;12.08;100.00;101417.39;105950;1251;72329;-63
2023/09/27 03:09:47;;;;;;;15.60;10.10;;;;;;;12.07;100.00;101416.58;105879;1251;66721;-62
2023/09/27 03:12:15;;;;;;;13.40;9.90;;;;;;;12.05;100.00;101412.48;106003;1254;71413;-65
2023/09/27 03:14:42;;;;;;;15.50;10.80;;;;;;;12.04;100.00;101410.48;106225;1251;60530;-67
2023/09/27 03:17:09;;;;;;;13.70;9.20;;;;;;;12.07;100.00;101404.73;105642;1251;59601;-65
2023/09/27 03:19:36;;;;;;;16.70;11.50;;;;;;;12.14;100.00;101408.48;105712;1251;73877;-66
2023/09/27 03:22:03;;;;;;;17.80;11.60;;;;;;;12.19;100.00;101412.19;105750;1257;65803;-65
2023/09/27 03:24:34;;;;;;;17.40;12.40;;;;;;;12.17;100.00;101413.94;106165;1251;72486;-66
2023/09/27 03:27:04;;;;;;;16.90;11.70;;;;;;;12.11;100.00;101416.49;105799;1251;61668;-65
2023/09/27 03:29:32;;;;;;;18.60;11.50;;;;;;;12.06;100.00;101416.42;105973;1256;60429;-66
2023/09/27 03:31:59;;;;;;;21.90;12.80;;;;;;;12.03;100.00;101416.48;105801;1251;71683;-65
2023/09/27 03:34:26;;;;;;;19.80;13.30;;;;;;;12.06;100.00;101417.73;105973;1254;65926;-65
2023/09/27 03:36:56;;;;;;;25.10;14.20;;;;;;;12.15;100.00;101421.30;105682;1251;73324;-63
2023/09/27 03:39:25;;;;;;;19.00;12.30;;;;;;;12.29;100.00;101422.61;105722;1254;62015;-66
2023/09/27 03:41:51;;;;;;;20.00;12.30;;;;;;;12.48;100.00;101423.30;105470;1251;60984;-66
2023/09/27 03:44:19;;;;;;;18.30;11.90;;;;;;;12.74;100.00;101422.73;106173;1254;74323;-68
2023/09/27 03:46:46;;;;;;;16.00;12.00;;;;;;;13.07;100.00;101419.84;105791;1254;67172;-66
2023/09/27 03:49:13;;;;;;;19.50;12.10;;;;;;;13.45;100.00;101414.88;105651;1254;71728;-67
2023/09/27 03:51:41;;;;;;;16.90;11.80;;;;;;;13.85;100.00;101411.02;105822;1254;60524;-65
2023/09/27 03:54:08;;;;;;;17.90;12.00;;;;;;;14.24;100.00;101403.34;105934;1253;60392;-67
2023/09/27 03:56:35;;;;;;;14.80;10.70;;;;;;;14.71;100.00;101399.66;105782;1254;74863;-65
2023/09/27 03:59:02;;;;;;;18.60;11.60;;;;;;;15.22;100.00;101394.02;105882;1253;66186;-65
2023/09/27 04:01:30;;;;;;;14.40;11.20;;;;;;;15.76;100.00;101388.42;106011;1254;72577;-67
2023/09/27 04:03:58;;;;;;;17.00;11.80;;;;;;;16.26;100.00;101384.91;106205;1256;60478;-64
2023/09/27 04:06:25;;;;;;;14.10;11.20;;;;;;;16.77;100.00;101379.29;106027;1251;60173;-65
2023/09/27 04:08:52;;;;;;;16.20;11.60;;;;;;;17.34;100.00;101364.15;105585;1254;73681;-64
2023/09/27 04:11:20;;;;;;;17.30;11.10;;;;;;;17.83;100.00;101359.70;105734;1254;65988;-64
2023/09/27 04:13:48;;;;;;;13.30;11.00;;;;;;;18.23;100.00;101357.02;109245;1250;72363;-66
2023/09/27 04:16:15;;;;;;;12.70;10.40;;;;;;;18.68;100.00;101355.63;105801;1254;60476;-64
2023/09/27 04:18:42;;;;;;;19.60;11.40;;;;;;;19.09;100.00;101349.52;106020;1251;60537;-66
2023/09/27 04:21:11;;;;;;;12.10;10.50;;;;;;;19.47;100.00;101345.91;105850;1251;72604;-64
2023/09/27 04:23:40;;;;;;;15.50;11.40;;;;;;;19.91;100.00;101346.10;106023;1254;66006;-64
2023/09/27 04:26:09;;;;;;;18.70;11.10;;;;;;;20.35;100.00;101347.78;106119;1251;70851;-64
2023/09/27 04:28:36;;;;;;;15.70;10.80;;;;;;;20.85;100.00;101342.41;106102;1254;60671;-66
2023/09/27 04:31:03;;;;;;;15.80;12.20;;;;;;;21.36;100.00;101343.81;105577;1254;60453;-65
2023/09/27 04:33:31;;;;;;;14.60;11.60;;;;;;;21.86;100.00;101336.62;105840;1252;74075;-64
2023/09/27 04:35:59;;;;;;;14.90;12.00;;;;;;;22.38;100.00;101338.66;105871;1251;67035;-66
2023/09/27 04:38:26;;;;;;;16.80;13.10;;;;;;;22.78;100.00;101341.56;105832;1254;71639;-64
2023/09/27 04:40:53;;;;;;;14.10;12.30;;;;;;;22.96;100.00;101344.58;105788;1256;60398;-66
2023/09/27 04:43:20;;;;;;;17.40;12.20;;;;;;;23.08;100.00;101338.77;105808;1251;60283;-64
2023/09/27 04:45:49;;;;;;;15.60;12.70;;;;;;;23.26;100.00;101339.23;105833;1253;73668;-63
2023/09/27 04:48:15;;;;;;;13.60;12.10;;;;;;;23.45;100.00;101336.67;105669;1254;67202;-64
2023/09/27 04:50:43;;;;;;;14.10;12.10;;;;;;;23.43;100.00;101339.60;105723;1251;72485;-65
2023/09/27 04:53:11;;;;;;;16.00;10.80;;;;;;;23.18;99.82;101343.15;105722;1251;60310;-64
2023/09/27 04:55:38;;;;;;;11.50;10.20;;;;;;;22.70;100.00;101348.27;106160;1251;60457;-64
2023/09/27 04:58:06;;;;;;;15.40;10.70;;;;;;;22.18;100.00;101345.77;106236;1251;73854;-65
2023/09/27 05:00:33;;;;;;;15.40;11.00;;;;;;;21.76;100.00;101348.20;106202;1251;67198;-67
2023/09/27 05:03:00;;;;;;;13.10;10.70;;;;;;;21.39;100.00;101355.52;105850;1251;73180;-64
2023/09/27 05:05:28;;;;;;;15.20;10.70;;;;;;;21.04;100.00;101355.29;106032;1254;60405;-63
2023/09/27 05:07:55;;;;;;;16.00;11.40;;;;;;;20.76;100.00;101357.21;106240;1251;60563;-65
2023/09/27 05:10:22;;;;;;;14.40;10.70;;;;;;;20.63;100.00;101360.30;106073;1254;74286;-64
2023/09/27 05:12:49;;;;;;;16.10;10.80;;;;;;;20.57;100.00;101361.56;106099;1253;65837;-66
2023/09/27 05:15:16;;;;;;;13.50;10.40;;;;;;;20.56;100.00;101366.25;105833;1254;73405;-64
2023/09/27 05:17:43;;;;;;;15.00;10.90;;;;;;;20.50;100.00;101371.73;106205;1256;60518;-65
2023/09/27 05:20:11;;;;;;;15.60;10.90;;;;;;;20.41;100.00;101368.27;106031;1254;60355;-67
2023/09/27 05:22:40;;;;;;;15.70;10.40;;;;;;;20.35;100.00;101365.89;106079;1253;72274;-66
2023/09/27 05:25:10;;;;;;;13.00;9.30;;;;;;;20.26;100.00;101363.96;105781;1253;67214;-66
2023/09/27 05:27:38;;;;;;;14.90;10.40;;;;;;;20.21;100.00;101365.36;105944;1256;72119;-66
2023/09/27 05:30:19;;;;;;;13.60;9.10;;;;;;;20.23;100.00;101365.98;106127;1255;61127;-64
2023/09/27 05:32:47;;;;;;;13.10;8.50;;;;;;;20.28;100.00;101363.90;105677;1251;60448;-64
2023/09/27 05:35:14;;;;;;;12.50;8.90;;;;;;;20.40;100.00;101365.08;105872;1252;74341;-62
2023/09/27 05:37:42;;;;;;;11.90;8.30;;;;;;;20.53;100.00;101368.61;106069;1256;67224;-63
2023/09/27 05:40:10;;;;;;;10.80;7.90;;;;;;;20.67;100.00;101365.11;106266;1256;72044;-64
2023/09/27 05:42:38;;;;;;;11.20;7.80;;;;;;;20.76;100.00;101362.83;105996;1255;60623;-64
2023/09/27 05:45:06;;;;;;;10.00;8.90;;;;;;;20.81;100.00;101363.73;106028;1256;60408;-63
2023/09/27 05:47:33;;;;;;;12.10;8.20;;;;;;;20.89;100.00;101361.48;106425;1253;72675;-63
2023/09/27 05:50:00;;;;;;;11.70;8.40;;;;;;;21.05;100.00;101361.75;106046;1251;66993;-65
2023/09/27 05:52:27;;;;;;;9.30;7.90;;;;;;;21.20;100.00;101363.30;106009;1253;73561;-66
2023/09/27 05:54:55;;;;;;;11.30;7.50;;;;;;;21.32;100.00;101365.83;105690;1251;60514;-64
2023/09/27 05:57:22;;;;;;;14.10;8.00;;;;;;;21.44;100.00;101361.59;106387;1250;60431;-64
2023/09/27 05:59:49;;;;;;;13.90;7.70;;;;;;;21.63;100.00;101359.56;105952;1253;72690;-64
2023/09/27 06:02:16;;;;;;;10.80;7.50;;;;;;;21.97;100.00;101358.26;105825;1256;67351;-65
2023/09/27 06:04:44;;;;;;;13.50;7.70;;;;;;;22.54;100.00;101360.45;105712;1256;73382;-66
2023/09/27 06:07:13;;;;;;;10.00;7.70;;;;;;;23.29;100.00;101356.36;106375;1253;60428;-64
2023/09/27 06:09:41;;;;;;;10.70;7.60;;;;;;;24.06;97.54;101355.63;106079;1252;60534;-64
2023/09/27 06:12:10;;;;;;;10.80;7.10;;;;;;;24.79;84.39;101354.23;105867;1256;74378;-64
2023/09/27 06:14:38;;;;;;;11.80;7.40;;;;;;;25.31;71.35;101357.58;106043;1254;66982;-64
2023/09/27 06:17:06;;;;;;;10.30;7.40;;;;;;;25.66;64.92;101358.33;105850;1253;73158;-64
2023/09/27 06:19:33;;;;;;;12.20;7.40;;;;;;;25.98;63.37;101357.75;105776;1253;60596;-65
2023/09/27 06:22:06;;;;;;;11.70;7.90;;;;;;;26.36;59.33;101357.82;105792;1252;60422;-66
2023/09/27 06:24:33;;;;;;;15.50;7.90;;;;;;;26.67;55.53;101359.27;105852;1256;74288;-67
2023/09/27 06:27:00;;;;;;;9.70;7.50;;;;;;;27.04;53.39;101359.19;105639;1256;65814;-66
2023/09/27 06:29:27;;;;;;;13.80;8.40;;;;;;;27.41;50.52;101359.23;106148;1252;71507;-65
2023/09/27 06:31:54;;;;;;;11.90;7.50;;;;;;;27.74;47.06;101356.89;105703;1252;60564;-64
2023/09/27 06:34:22;;;;;;;10.90;8.00;;;;;;;27.98;46.00;101359.90;105828;1256;60403;-66
2023/09/27 06:36:49;;;;;;;14.00;8.40;;;;;;;28.19;44.52;101361.48;106250;1252;73388;-65
2023/09/27 06:39:16;;;;;;;9.30;7.10;;;;;;;28.32;43.94;101360.74;105759;1253;67066;-64
2023/09/27 06:41:45;;;;;;;10.30;7.60;;;;;;;28.49;42.29;101363.41;105782;1257;72539;-64
2023/09/27 06:44:12;;;;;;;8.90;7.00;;;;;;;28.54;41.05;101359.64;106081;1257;60596;-67
2023/09/27 06:46:39;;;;;;;9.80;7.00;;;;;;;28.57;41.04;101355.61;105471;1256;61053;-65
2023/09/27 06:49:16;;;;;;;10.70;6.50;;;;;;;28.78;40.11;101356.45;105896;1254;72522;-64
2023/09/27 06:51:44;;;;;;;8.90;6.50;;;;;;;28.90;39.14;101355.82;105946;1250;67670;-65
2023/09/27 06:54:10;;;;;;;7.10;6.20;;;;;;;29.01;39.63;101358.02;106010;1251;73325;-66
2023/09/27 06:56:39;;;;;;;8.90;6.10;;;;;;;29.23;38.75;101361.34;105861;1250;60522;-66
2023/09/27 06:59:07;;;;;;;8.00;6.00;;;;;;;29.40;38.20;101365.23;106009;1254;60976;-66
2023/09/27 07:01:34;;;;;;;10.20;6.30;;;;;;;29.49;37.29;101365.09;106125;1251;72387;-67
2023/09/27 07:04:05;;;;;;;14.00;7.20;;;;;;;29.50;37.43;101362.40;106145;1254;65858;-67
2023/09/27 07:06:33;;;;;;;10.60;6.30;;;;;;;29.64;37.26;101367.52;105890;1250;72887;-66
2023/09/27 07:09:00;;;;;;;8.60;6.10;;;;;;;29.74;37.16;101363.54;105892;1253;60983;-67
2023/09/27 07:11:28;;;;;;;6.60;5.80;;;;;;;29.88;37.28;101363.49;105808;1256;60801;-64
2023/09/27 07:13:55;;;;;;;9.30;5.70;;;;;;;29.98;36.38;101359.72;106075;1255;74053;-67
2023/09/27 07:16:26;;;;;;;9.40;6.90;;;;;;;30.07;36.69;101360.92;105779;1253;65970;-68
2023/09/27 07:18:53;;;;;;;7.60;5.20;;;;;;;30.25;36.22;101356.91;106152;1251;71510;-67
2023/09/27 07:21:21;;;;;;;7.20;6.20;;;;;;;30.26;35.80;101357.59;105612;1256;60498;-68
2023/09/27 07:23:49;;;;;;;10.00;6.60;;;;;;;30.16;35.60;101353.39;105780;1256;60336;-68
2023/09/27 07:26:16;;;;;;;8.30;5.50;;;;;;;30.20;35.98;101354.33;105943;1252;73620;-68
2023/09/27 07:28:45;;;;;;;7.40;5.60;;;;;;;30.24;35.93;101358.90;106067;1251;67305;-67
2023/09/27 07:31:16;;;;;;;7.30;5.90;;;;;;;30.28;35.45;101356.23;105798;1253;73746;-68
2023/09/27 07:33:44;;;;;;;12.10;6.10;;;;;;;30.22;35.47;101355.70;105435;1252;60450;-67
2023/09/27 07:36:12;;;;;;;8.10;6.20;;;;;;;30.15;35.85;101355.70;105370;1251;60457;-68
2023/09/27 07:38:40;;;;;;;9.10;5.60;;;;;;;30.16;36.33;101354.57;105580;1255;73667;-68
2023/09/27 07:41:08;;;;;;;8.00;5.50;;;;;;;30.28;36.27;101355.73;106013;1256;67304;-67
2023/09/27 07:43:36;;;;;;;10.90;6.80;;;;;;;30.42;35.92;101355.23;105675;1251;71706;-67
2023/09/27 07:46:06;;;;;;;11.80;6.60;;;;;;;30.53;35.92;101357.08;105650;1251;60479;-66
2023/09/27 07:48:38;;;;;;;10.30;6.20;;;;;;;30.67;36.23;101355.20;105842;1255;60698;-66
2023/09/27 07:51:14;;;;;;;8.20;5.80;;;;;;;30.89;35.88;101353.40;105969;1251;75293;-67
2023/09/27 07:53:41;;;;;;;7.90;5.80;;;;;;;31.17;35.05;101350.20;105834;1251;67948;-67
2023/09/27 07:56:10;;;;;;;7.40;6.30;;;;;;;31.26;34.40;101350.27;105761;1252;73031;-67
2023/09/27 07:58:41;;;;;;;9.00;5.60;;;;;;;31.34;34.60;101348.11;107540;1255;60572;-67
2023/09/27 08:01:08;;;;;;;7.30;5.80;;;;;;;31.49;34.14;101345.25;105718;1253;60456;-70
2023/09/27 08:03:36;;;;;;;10.40;5.60;;;;;;;31.52;34.07;101345.31;106085;1253;73898;-67
2023/09/27 08:06:04;;;;;;;10.00;7.00;;;;;;;31.56;34.45;101341.91;105903;1253;67582;-68
2023/09/27 08:08:31;;;;;;;7.50;5.00;;;;;;;31.75;34.38;101342.90;105906;1255;72420;-67
2023/09/27 08:11:00;;;;;;;7.40;5.10;;;;;;;31.83;34.09;101339.39;106098;1251;61904;-67
2023/09/27 08:13:30;;;;;;;5.80;4.30;;;;;;;31.97;33.81;101337.14;105861;1254;60432;-67
2023/09/27 08:15:57;;;;;;;11.60;5.70;;;;;;;32.10;33.20;101335.66;105921;1251;72477;-67
2023/09/27 08:18:25;;;;;;;7.90;4.80;;;;;;;32.09;33.16;101331.27;105659;1256;65895;-67
2023/09/27 08:20:54;;;;;;;8.60;5.30;;;;;;;32.11;33.50;101332.91;106018;1254;73176;-66
2023/09/27 08:23:22;;;;;;;5.60;4.10;;;;;;;32.24;32.79;101333.83;105955;1254;60440;-67
2023/09/27 08:25:50;;;;;;;6.50;4.90;;;;;;;32.26;32.48;101327.57;106022;1254;60362;-66
2023/09/27 08:28:17;;;;;;;10.90;4.80;;;;;;;32.17;32.55;101328.67;105516;1256;65524;-67
2023/09/27 08:30:45;;;;;;;5.80;4.50;;;;;;;32.09;32.37;101330.58;105620;1252;68380;-67
2023/09/27 08:33:12;;;;;;;6.30;4.30;;;;;;;32.06;32.49;101327.69;105844;1251;74369;-67
2023/09/27 08:35:40;;;;;;;9.50;4.50;;;;;;;32.06;32.78;101328.48;105814;1255;61802;-67
2023/09/27 08:38:08;;;;;;;7.80;4.40;;;;;;;32.12;32.20;101322.25;105890;1252;61467;-68
2023/09/27 08:40:37;;;;;;;5.00;3.90;;;;;;;32.14;32.28;101324.69;105982;1250;75316;-68
2023/09/27 08:43:04;;;;;;;6.70;4.30;;;;;;;32.12;31.75;101328.05;106298;1250;67183;-68
2023/09/27 08:45:33;;;;;;;9.10;4.70;;;;;;;31.78;31.98;101324.48;105881;1250;74682;-67
2023/09/27 08:48:00;;;;;;;7.50;5.70;;;;;;;31.53;32.88;101325.44;105950;1250;60507;-68
2023/09/27 08:50:27;;;;;;;7.30;5.60;;;;;;;31.43;32.83;101322.69;105972;1254;60332;-68
2023/09/27 08:52:55;;;;;;;10.60;6.90;;;;;;;31.43;32.85;101322.73;106118;1250;73843;-68
2023/09/27 08:55:22;;;;;;;7.00;5.40;;;;;;;31.49;32.62;101320.08;106155;1256;67649;-69
2023/09/27 08:57:51;;;;;;;8.70;5.00;;;;;;;31.42;32.36;101313.95;105842;1256;72849;-69
2023/09/27 09:00:21;;;;;;;10.40;5.40;;;;;;;31.37;32.98;101314.48;105785;1256;60416;-65
2023/09/27 09:02:52;;;;;;;8.70;5.50;;;;;;;31.38;32.53;101310.33;105819;1254;62089;-69
2023/09/27 09:05:19;;;;;;;11.20;6.10;;;;;;;31.33;33.03;101307.17;106096;1251;75321;-70
2023/09/27 09:07:47;;;;;;;8.40;5.10;;;;;;;31.46;32.81;101305.38;105835;1256;68215;-70
2023/09/27 09:10:15;;;;;;;6.90;5.20;;;;;;;31.58;32.90;101299.82;105873;1253;65387;-71
2023/09/27 09:12:43;;;;;;;6.80;4.90;;;;;;;31.64;32.14;101298.89;105845;1251;61478;-69
2023/09/27 09:15:15;;;;;;;6.20;4.00;;;;;;;31.60;31.63;101295.79;105782;1253;60746;-68
2023/09/27 09:17:47;;;;;;;9.30;4.20;;;;;;;31.47;31.58;101295.59;105835;1255;75775;-66
2023/09/27 09:20:33;;;;;;;6.70;4.20;;;;;;;31.22;32.18;101299.85;105700;1256;67636;-68
2023/09/27 09:23:11;;;;;;;6.80;4.70;;;;;;;30.98;32.22;101295.27;105876;1257;73983;-66
2023/09/27 09:25:43;;;;;;;6.60;4.80;;;;;;;30.83;32.70;101294.21;105953;1256;61968;-68
2023/09/27 09:28:13;;;;;;;6.90;4.40;;;;;;;30.74;33.12;101294.86;105780;1250;60951;-68
2023/09/27 09:30:40;;;;;;;7.40;4.80;;;;;;;30.70;32.61;101291.09;106003;1251;73999;-69
2023/09/27 09:33:19;;;;;;;6.90;5.00;;;;;;;30.67;32.85;101286.04;105896;1256;68640;-67
2023/09/27 09:35:47;;;;;;;10.80;4.80;;;;;;;30.61;33.61;101290.32;105796;1253;73407;-67
2023/09/27 09:38:26;;;;;;;6.40;4.80;;;;;;;30.72;33.34;101286.89;105778;1253;60536;-68
2023/09/27 09:40:53;;;;;;;5.90;4.70;;;;;;;30.79;32.83;101282.48;105795;1252;61309;-67
2023/09/27 09:43:33;;;;;;;6.30;4.90;;;;;;;30.84;32.46;101283.48;105916;1256;72447;-68
2023/09/27 09:46:06;;;;;;;6.50;5.10;;;;;;;30.84;32.41;101280.83;105902;1254;69091;-67
2023/09/27 09:48:34;;;;;;;8.00;4.50;;;;;;;30.80;32.16;101278.77;106030;1255;73855;-68
2023/09/27 09:51:06;;;;;;;5.30;4.20;;;;;;;30.78;32.60;101275.98;105627;1256;62692;-68
2023/09/27 09:53:41;;;;;;;6.70;4.10;;;;;;;30.84;32.07;101274.22;105807;1252;60694;-69
2023/09/27 09:56:10;;;;;;;5.70;4.00;;;;;;;30.80;32.33;101269.55;105668;1251;74388;-69
2023/09/27 09:58:54;;;;;;;4.30;3.70;;;;;;;30.84;31.92;101264.59;105658;1254;67601;-67
2023/09/27 10:01:22;;;;;;;7.30;4.30;;;;;;;30.75;31.15;101266.81;105972;1251;65587;-68
2023/09/27 10:03:51;;;;;;;6.60;5.60;;;;;;;30.66;31.65;101261.14;105713;1257;61957;-66
2023/09/27 10:06:19;;;;;;;8.10;4.70;;;;;;;30.69;31.85;101263.49;105457;1256;60865;-66
2023/09/27 10:09:05;;;;;;;9.20;4.90;;;;;;;30.65;31.46;101256.77;105358;1253;75482;-67
2023/09/27 10:11:33;;;;;;;6.50;4.30;;;;;;;30.61;31.69;101252.87;105280;1252;68644;-67
2023/09/27 10:14:01;;;;;;;5.80;4.30;;;;;;;30.70;31.81;101253.58;105445;1253;74246;-68
2023/09/27 10:16:28;;;;;;;6.30;4.20;;;;;;;30.78;31.19;101242.34;105490;1250;60664;-68
2023/09/27 10:18:55;;;;;;;5.60;4.70;;;;;;;30.79;31.61;101238.81;105565;1250;61783;-69
2023/09/27 10:21:23;;;;;;;7.00;4.30;;;;;;;30.82;31.39;101238.19;105343;1254;73931;-69
2023/09/27 10:23:52;;;;;;;6.60;4.10;;;;;;;30.83;31.33;101237.52;105562;1254;65843;-70
2023/09/27 10:26:29;;;;;;;4.60;3.90;;;;;;;30.88;31.18;101235.61;105500;1254;71137;-69
2023/09/27 10:29:18;;;;;;;8.50;4.20;;;;;;;30.84;30.83;101235.67;105522;1255;60534;-69
2023/09/27 10:31:57;;;;;;;6.30;3.80;;;;;;;30.78;30.85;101234.96;105971;1255;60458;-69
2023/09/27 10:34:27;;;;;;;5.60;4.40;;;;;;;30.78;30.77;101228.13;105689;1253;74495;-68
2023/09/27 10:36:55;;;;;;;7.30;4.50;;;;;;;30.83;31.08;101226.42;105288;1256;67208;-69
2023/09/27 10:40:21;;;;;;;5.10;4.00;;;;;;;30.87;31.34;101224.36;105351;1253;72802;-68
2023/09/27 10:42:48;;;;;;;5.00;3.80;;;;;;;31.01;31.49;101223.38;105700;1256;292800;-68
2023/09/27 10:45:16;;;;;;;4.70;4.10;;;;;;;31.17;30.88;101226.84;105295;1253;60876;-66
2023/09/27 10:47:45;;;;;;;5.10;4.10;;;;;;;31.19;29.83;101226.73;105569;1256;75421;-67
2023/09/27 10:50:13;;;;;;;6.20;4.30;;;;;;;31.11;30.24;101223.55;105705;1256;65987;-66
2023/09/27 10:52:40;;;;;;;5.30;4.10;;;;;;;31.01;30.51;101222.98;105537;1253;71217;-67
2023/09/27 10:55:08;;;;;;;6.60;4.60;;;;;;;30.94;30.60;101222.95;105468;1253;60804;-66
2023/09/27 10:57:35;;;;;;;7.10;4.90;;;;;;;30.91;30.82;101226.72;105926;1253;60817;-68
2023/09/27 11:00:10;;;;;;;5.50;4.20;;;;;;;30.89;30.39;101217.88;105656;1253;74354;-67
2023/09/27 11:02:37;;;;;;;6.90;5.50;;;;;;;30.80;30.71;101220.07;105818;1256;60575;-66
2023/09/27 11:05:06;;;;;;;5.30;3.80;;;;;;;30.70;30.76;101214.61;105870;1253;74240;-66
2023/09/27 11:07:46;;;;;;;4.70;4.00;;;;;;;30.63;30.24;101213.22;105980;1251;62025;-67
2023/09/27 11:10:31;;;;;;;6.80;3.90;;;;;;;30.57;30.03;101217.35;105526;1256;61806;-66